Pioche, Nevada Weather observations

Data are for observation ending at time listed.
 Day   Time    Ave.   Ave.  Ave.  Vector   Max.   Stn.    Total    Solar   Ave.  
  of    of     Air    Rel.  Wind   Wind    Wind   Baro.  Precip.   Rad.    Soil  
Year   Day     Temp.  Hum.  Speed  Dir.    Gust   Pres.                    Temp. 
2015   (PST)    F      %     mph   deg.    mph     mb.     in.     W/m2     F   
------------------------------------------------------------------------------
 241   17:00   84.3    20   11.3   136     19.4   820.1    0.00      45    81.0
 241   17:10   83.8    20    7.2   132     18.2   820.0    0.00      42    81.1
 241   17:20   84.1    20    7.1   125     19.4   820.0    0.00      37    81.2
 241   17:30   83.5    20   11.4   136     20.8   820.0    0.00      25    81.3
 241   17:40   83.2    20    5.9   126     13.3   819.9    0.00      17    81.3
 241   17:50   82.9    20    5.7   120     15.3   819.9    0.00      12    81.4
 241   18:00   82.7    20    7.6   108     16.5   819.9    0.00      10    81.4
 241   18:10   82.4    20    7.2   114     15.9   819.9    0.00       4    81.5
 241   18:20   82.1    21    9.1   106     17.1   819.9    0.00       2    81.5
 241   18:30   81.7    21    7.5   108     17.5   819.9    0.00       0    81.6
 241   18:40   81.3    22    7.2   104     18.0   819.9    0.00       0    81.6
 241   18:50   81.1    22    7.4   104     15.3   819.9    0.00       0    81.6
 241   19:00   80.7    23    5.6   113     16.3   820.0    0.00       0    81.6
 241   19:10   80.5    23    4.6   124     10.7   820.1    0.00       0    81.6
 241   19:20   79.6    24    3.3   124      9.3   820.1    0.00       0    81.6
 241   19:30   79.8    24    4.2   132      9.9   820.1    0.00       0    81.5
 241   19:40   79.6    24    3.8    99     11.8   820.2    0.00       0    81.5
 241   19:50   79.3    25    3.2   130      7.7   820.3    0.00       0    81.5
 241   20:00   78.6    26    3.8   118     10.9   820.3    0.00       0    81.5
 241   20:10   77.7    26    1.8   159      4.6   820.4    0.00       0    81.5
 241   20:20   77.8    26    2.7   147      7.2   820.5    0.00       0    81.4
 241   20:30   77.6    27    1.6   152      6.4   820.4    0.00       0    81.4
 241   20:40   77.9    27    2.1   124      5.4   820.4    0.00       0    81.4
 241   20:50   77.8    27    2.9   158      7.2   820.5    0.00       0    81.3
 241   21:00   77.4    28    2.4   166      6.6   820.4    0.00       0    81.3
 241   21:10   77.4    27    4.1   133      6.6   820.4    0.00       0    81.3
 241   21:20   77.3    27    3.2   122      5.3   820.4    0.00       0    81.2
 241   21:30   76.4    29    1.8   156      3.4   820.4    0.00       0    81.2
 241   21:40   75.6    29    2.1   156      3.4   820.4    0.00       0    81.1
 241   21:50   74.8    30    3.6   142      5.2   820.4    0.00       0    81.1
 241   22:00   73.7    31    2.1   154      3.9   820.4    0.00       0    81.1
 241   22:10   73.6    30    3.4   143      4.5   820.4    0.00       0    81.0
 241   22:20   73.5    30    3.3   147      4.7   820.4    0.00       0    81.0
 241   22:30   73.8    28    2.9   149      6.1   820.4    0.00       0    80.9
 241   22:40   73.3    28    2.8   154      5.0   820.5    0.00       0    80.9
 241   22:50   72.6    30    1.7   162      4.0   820.5    0.00       0    80.9
 241   23:00   71.8    31    1.3   170      4.3   820.6    0.00       0    80.8
 241   23:10   71.9    27    4.1   142      5.4   820.6    0.00       0    80.7
 241   23:20   71.4    28    3.9   145      5.4   820.6    0.00       0    80.7
 241   23:30   71.6    27    3.7   143      5.0   820.6    0.00       0    80.7
 241   23:40   72.6    26    4.3   137      5.5   820.6    0.00       0    80.6
 241   23:50   72.8    27    3.2   157      5.5   820.6    0.00       0    80.5
 242    0:00   73.0    27    3.5   151      7.2   820.7    0.00       0    80.5
 242    0:10   73.1    27    3.3   150      7.1   820.7    0.00       0    80.4
 242    0:20   72.0    30    2.3   159      3.7   820.6    0.00       0    80.4
 242    0:30   70.5    32    2.2   162      5.0   820.6    0.00       0    80.3
 242    0:40   69.3    33    3.8   150      5.8   820.5    0.00       0    80.2
 242    0:50   68.8    35    4.8   147      6.4   820.4    0.00       0    80.2
 242    1:00   68.1    36    5.1   147      6.6   820.3    0.00       0    80.1
 242    1:10   67.6    37    3.6   150      5.8   820.3    0.00       0    80.1
 242    1:20   67.6    37    4.4   146      5.8   820.4    0.00       0    80.0
 242    1:30   67.6    37    4.9   143      6.6   820.4    0.00       0    80.0
 242    1:40   67.7    35    4.8   144      6.9   820.3    0.00       0    79.9
 242    1:50   67.8    34    4.7   145      7.3   820.3    0.00       0    79.8
 242    2:00   66.9    36    4.6   151      6.1   820.3    0.00       0    79.8
 242    2:10   67.2    34    5.2   148      6.7   820.4    0.00       0    79.7
 242    2:20   67.5    33    4.1   148      6.4   820.4    0.00       0    79.6
 242    2:30   68.9    31    3.7   152      5.6   820.4    0.00       0    79.6
 242    2:40   69.6    31    3.5   151      5.1   820.4    0.00       0    79.5
 242    2:50   69.4    32    3.9   150      6.2   820.4    0.00       0    79.4
 242    3:00   69.9    30    4.6   147      5.9   820.4    0.00       0    79.4
 242    3:10   69.1    31    4.4   145      6.0   820.4    0.00       0    79.3
 242    3:20   68.2    31    5.1   143      6.0   820.4    0.00       0    79.2
 242    3:30   67.9    32    4.6   148      5.8   820.4    0.00       0    79.2
 242    3:40   68.2    32    2.9   152      4.7   820.3    0.00       0    79.1
 242    3:50   68.8    30    2.4   155      4.0   820.3    0.00       0    79.1
 242    4:00   67.3    37    1.9   318      3.1   820.4    0.00       0    79.0
 242    4:10   63.8    46    1.5   223      4.7   820.4    0.00       0    79.0
 242    4:20   67.1    35    4.9   144      6.6   820.3    0.00       0    78.9
 242    4:30   67.6    34    5.0   140      6.2   820.4    0.00       0    78.9
 242    4:40   67.3    34    5.1   137      7.0   820.5    0.00       0    78.8
 242    4:50   67.0    34    5.1   140      6.7   820.5    0.00       0    78.7
 242    5:00   67.0    34    5.1   139      6.7   820.5    0.00       1    78.6
 242    5:10   67.1    34    5.0   140      6.5   820.6    0.00       4    78.6
 242    5:20   66.9    34    3.5   151      5.5   820.7    0.00       8    78.5
 242    5:30   67.9    32    4.1   145      5.7   820.8    0.00      13    78.5
 242    5:40   67.5    35    3.9   116      5.6   820.9    0.00      20    78.4
 242    5:50   66.5    37    3.6   142      5.4   821.0    0.00      32    78.3
 242    6:00   68.2    34    3.1   151      4.7   821.1    0.00      43    78.3
 242    6:10   69.5    32    4.8   146      8.5   821.1    0.00      52    78.2
 242    6:20   70.4    31    4.7   140      8.3   821.2    0.00      69    78.1
 242    6:30   70.2    32    3.7   145      7.2   821.3    0.00      87    78.1
 242    6:40   70.0    32    4.3   152      6.5   821.3    0.00     100    78.0
 242    6:50   70.1    32    5.7   138      8.6   821.4    0.00     117    78.0
 242    7:00   70.4    31    4.8   140      8.2   821.4    0.00     156    77.9
 242    7:10   70.9    31    3.6   139      6.1   821.4    0.00     226    77.8
 242    7:20   72.1    29    4.2   147      7.9   821.4    0.00     466    77.8
 242    7:30   73.2    28    5.4   128      8.1   821.4    0.00     473    77.8
 242    7:40   73.5    28    5.3   126     11.3   821.4    0.00     353    77.8
 242    7:50   72.6    29    6.1   123     14.2   821.5    0.00     253    77.7
 242    8:00   72.9    28    5.1   120     11.6   821.5    0.00     404    77.7
 242    8:10   73.4    27    6.5   125     12.1   821.5    0.00     420    77.6
 242    8:20   74.2    27    6.0   125     12.6   821.5    0.00     619    77.6
 242    8:30   75.1    26    6.6   122     15.9   821.5    0.00     691    77.5
 242    8:40   75.7    26    5.2   142     16.2   821.6    0.00     563    77.5
 242    8:50   76.0    26    5.5   115     12.2   821.6    0.00     652    77.5
 242    9:00   77.3    25    5.4   134     14.4   821.7    0.00     803    77.5
 242    9:10   77.2    25    7.9   129     16.1   821.7    0.00     783    77.5
 242    9:20   77.2    25    7.6   141     15.2   821.7    0.00     682    77.5
 242    9:30   76.8    25    7.4   122     17.8   821.7    0.00     593    77.5
 242    9:40   76.8    26    9.3   104     20.0   821.6    0.00     702    77.5
 242    9:50   77.7    25    9.7   123     24.4   821.6    0.00     559    77.5
 242   10:00   77.6    25   12.0   119     22.3   821.5    0.00     549    77.5
 242   10:10   77.9    25   10.5   115     19.4   821.5    0.00     501    77.5
 242   10:20   78.5    25   10.0   127     18.9   821.4    0.00     478    77.5
 242   10:30   79.0    25   10.9   135     19.4   821.4    0.00     684    77.5
 242   10:40   79.6    25   11.7   138     22.5   821.2    0.00     771    77.6
 242   10:50   79.0    26   12.0   143     25.2   821.2    0.00     509    77.6
 242   11:00   79.2    26   12.9   124     25.0   821.0    0.00     514    77.6
 242   11:10   79.0    26   12.3   137     21.3   821.0    0.00     602    77.7
 242   11:20   79.4    26   14.7   119     30.2   820.8    0.00     484    77.7
 242   11:30   79.0    26   12.9   132     25.1   820.9    0.00     475    77.8
 242   11:40   78.8    26   12.6   137     25.4   820.8    0.00     464    77.8
 242   11:50   79.1    26   10.5   136     20.3   820.8    0.00     481    77.9
 242   12:00   79.5    26   12.2   141     24.9   820.7    0.00     472    77.9
 242   12:10   79.3    26   11.2   146     20.4   820.8    0.00     509    78.0
 242   12:20   79.5    25    9.8   133     20.1   820.7    0.00     420    78.0
 242   12:30   79.6    24   10.5   135     20.9   820.7    0.00     524    78.1
 242   12:40   79.5    24   11.7   128     23.2   820.6    0.00     451    78.1
 242   12:50   79.5    24   12.9   134     25.7   820.6    0.00     528    78.2
 242   13:00   79.6    24   10.9   134     22.4   820.6    0.00     479    78.2
 242   13:10   79.7    24   10.7   135     18.3   820.4    0.00     526    78.3
 242   13:20   80.6    23    8.6   130     22.1   820.3    0.00     542    78.3
 242   13:30   81.0    23    9.7   124     19.6   820.2    0.00     488    78.3
 242   13:40   80.6    23   10.5   132     21.4   820.1    0.00     569    78.4
 242   13:50   81.1    23    8.4   148     17.0   820.0    0.00     535    78.4
 242   14:00   80.8    23    5.9   169     14.5   819.9    0.00     398    78.5
 242   14:10   80.5    23    6.8   195     17.0   819.9    0.00     311    78.5
 242   14:20   80.0    24    5.1   206     12.6   819.7    0.00     255    78.6
 242   14:30   80.2    23    5.4   154     15.6   819.6    0.00     270    78.7
 242   14:40   80.1    23    6.1   177     14.0   819.6    0.00     283    78.8
 242   14:50   80.0    24    4.3   217     10.4   819.5    0.00     237    78.8
 242   15:00   79.8    24   10.3   124     19.6   819.4    0.00     240    78.9
 242   15:10   80.4    23    6.7   145     15.1   819.5    0.00     359    78.9
 242   15:20   80.6    23    4.6   186     11.8   819.5    0.00     311    79.0
 242   15:30   80.2    22    4.7   207     10.0   819.4    0.00     230    79.0
 242   15:40   81.4    22    3.7   203      8.6   819.3    0.00     609    79.1
 242   15:50   82.4    21    5.2   172     11.2   819.3    0.00     554    79.1
 242   16:00   81.6    22    3.0   166      9.2   819.2    0.00     290    79.1
 242   16:10   80.9    22    3.3   187     10.4   819.1    0.00     198    79.2
 242   16:20   80.7    22    5.6   172     14.3   819.1    0.00     170    79.3
 242   16:30   80.2    23    3.5   192     12.0   819.1    0.00     101    79.4
 242   16:40   79.7    22    5.8   148     12.4   819.1    0.00      93    79.4
 242   16:50   80.2    22    3.9   169      8.3   819.0    0.00      72    79.4

Return to Pioche, Nevada graphs page.


Western Regional Climate Center,wrcc@dri.edu